sensor_id;sensor_type;location;lat;lon;timestamp;pressure;altitude;pressure_sealevel;temperature;humidity
46007;BME280;31738;50.188;8.524;2023-04-25T00:00:03;98066.88;;;10.62;86.37
46007;BME280;31738;50.188;8.524;2023-04-25T00:02:37;98073.31;;;10.61;86.34
46007;BME280;31738;50.188;8.524;2023-04-25T00:05:03;98071.16;;;10.63;86.21
46007;BME280;31738;50.188;8.524;2023-04-25T00:07:30;98070.63;;;10.61;86.28
46007;BME280;31738;50.188;8.524;2023-04-25T00:09:56;98077.59;;;10.62;86.30
46007;BME280;31738;50.188;8.524;2023-04-25T00:12:21;98079.47;;;10.62;86.26
46007;BME280;31738;50.188;8.524;2023-04-25T00:14:48;98080.78;;;10.64;86.21
46007;BME280;31738;50.188;8.524;2023-04-25T00:17:15;98079.72;;;10.65;86.45
46007;BME280;31738;50.188;8.524;2023-04-25T00:19:42;98080.19;;;10.67;86.53
46007;BME280;31738;50.188;8.524;2023-04-25T00:22:12;98078.63;;;10.66;86.18
46007;BME280;31738;50.188;8.524;2023-04-25T00:24:38;98078.63;;;10.66;86.61
46007;BME280;31738;50.188;8.524;2023-04-25T00:27:04;98077.59;;;10.62;86.41
46007;BME280;31738;50.188;8.524;2023-04-25T00:29:30;98082.16;;;10.62;86.34
46007;BME280;31738;50.188;8.524;2023-04-25T00:31:55;98085.13;;;10.60;86.44
46007;BME280;31738;50.188;8.524;2023-04-25T00:34:20;98081.66;;;10.60;86.54
46007;BME280;31738;50.188;8.524;2023-04-25T00:36:46;98078.19;;;10.59;86.72
46007;BME280;31738;50.188;8.524;2023-04-25T00:39:14;98067.47;;;10.59;86.54
46007;BME280;31738;50.188;8.524;2023-04-25T00:41:40;98073.59;;;10.60;86.85
46007;BME280;31738;50.188;8.524;2023-04-25T00:44:18;98072.25;;;10.62;86.67
46007;BME280;31738;50.188;8.524;2023-04-25T00:46:44;98066.38;;;10.60;86.05
46007;BME280;31738;50.188;8.524;2023-04-25T00:49:09;98072.03;;;10.59;86.12
46007;BME280;31738;50.188;8.524;2023-04-25T00:51:40;98071.50;;;10.57;85.79
46007;BME280;31738;50.188;8.524;2023-04-25T00:54:07;98070.50;;;10.53;85.72
46007;BME280;31738;50.188;8.524;2023-04-25T00:56:32;98073.75;;;10.50;85.14
46007;BME280;31738;50.188;8.524;2023-04-25T00:58:58;98072.44;;;10.47;85.28
46007;BME280;31738;50.188;8.524;2023-04-25T01:01:24;98081.63;;;10.41;84.37
46007;BME280;31738;50.188;8.524;2023-04-25T01:03:49;98081.19;;;10.34;84.25
46007;BME280;31738;50.188;8.524;2023-04-25T01:06:16;98076.94;;;10.33;83.87
46007;BME280;31738;50.188;8.524;2023-04-25T01:08:42;98083.16;;;10.28;83.80
46007;BME280;31738;50.188;8.524;2023-04-25T01:11:08;98090.97;;;10.25;83.27
46007;BME280;31738;50.188;8.524;2023-04-25T01:13:34;98090.72;;;10.21;83.54
46007;BME280;31738;50.188;8.524;2023-04-25T01:16:01;98092.16;;;10.14;83.27
46007;BME280;31738;50.188;8.524;2023-04-25T01:18:26;98085.22;;;10.13;83.55
46007;BME280;31738;50.188;8.524;2023-04-25T01:21:05;98087.38;;;10.11;83.72
46007;BME280;31738;50.188;8.524;2023-04-25T01:23:32;98084.72;;;10.06;83.44
46007;BME280;31738;50.188;8.524;2023-04-25T01:26:02;98087.38;;;10.06;83.30
46007;BME280;31738;50.188;8.524;2023-04-25T01:28:44;98086.09;;;10.03;83.99
46007;BME280;31738;50.188;8.524;2023-04-25T01:31:11;98088.47;;;10.05;83.75
46007;BME280;31738;50.188;8.524;2023-04-25T01:33:37;98095.72;;;10.04;83.52
46007;BME280;31738;50.188;8.524;2023-04-25T01:36:03;98093.84;;;10.05;83.63
46007;BME280;31738;50.188;8.524;2023-04-25T01:38:29;98081.53;;;10.04;84.19
46007;BME280;31738;50.188;8.524;2023-04-25T01:40:59;98077.53;;;10.01;84.24
46007;BME280;31738;50.188;8.524;2023-04-25T01:43:26;98080.78;;;9.98;84.59
46007;BME280;31738;50.188;8.524;2023-04-25T01:46:01;98087.22;;;9.97;84.96
46007;BME280;31738;50.188;8.524;2023-04-25T01:48:26;98088.00;;;9.98;84.60
46007;BME280;31738;50.188;8.524;2023-04-25T01:50:58;98092.88;;;9.96;84.45
46007;BME280;31738;50.188;8.524;2023-04-25T01:53:30;98081.06;;;9.97;84.53
46007;BME280;31738;50.188;8.524;2023-04-25T01:56:13;98085.41;;;9.93;85.04
46007;BME280;31738;50.188;8.524;2023-04-25T01:58:39;98081.97;;;9.87;84.28
46007;BME280;31738;50.188;8.524;2023-04-25T02:01:20;98088.13;;;9.88;84.46
46007;BME280;31738;50.188;8.524;2023-04-25T02:03:58;98094.06;;;9.85;84.57
46007;BME280;31738;50.188;8.524;2023-04-25T02:06:33;98089.00;;;9.83;84.40
46007;BME280;31738;50.188;8.524;2023-04-25T02:08:58;98098.59;;;9.84;84.25
46007;BME280;31738;50.188;8.524;2023-04-25T02:11:27;98101.56;;;9.83;84.15
46007;BME280;31738;50.188;8.524;2023-04-25T02:14:11;98091.44;;;9.80;84.86
46007;BME280;31738;50.188;8.524;2023-04-25T02:16:49;98096.28;;;9.78;84.41
46007;BME280;31738;50.188;8.524;2023-04-25T02:19:19;98088.25;;;9.78;84.34
46007;BME280;31738;50.188;8.524;2023-04-25T02:21:46;98082.09;;;9.77;84.29
46007;BME280;31738;50.188;8.524;2023-04-25T02:24:12;98090.13;;;9.77;85.02
46007;BME280;31738;50.188;8.524;2023-04-25T02:26:37;98088.00;;;9.74;84.99
46007;BME280;31738;50.188;8.524;2023-04-25T02:29:07;98081.84;;;9.74;85.07
46007;BME280;31738;50.188;8.524;2023-04-25T02:31:37;98081.56;;;9.75;85.12
46007;BME280;31738;50.188;8.524;2023-04-25T02:34:03;98071.13;;;9.74;84.83
46007;BME280;31738;50.188;8.524;2023-04-25T02:36:28;98073.28;;;9.72;84.88
46007;BME280;31738;50.188;8.524;2023-04-25T02:39:00;98075.47;;;9.70;85.32
46007;BME280;31738;50.188;8.524;2023-04-25T02:41:31;98084.56;;;9.69;85.15
46007;BME280;31738;50.188;8.524;2023-04-25T02:43:57;98086.19;;;9.70;85.30
46007;BME280;31738;50.188;8.524;2023-04-25T02:46:24;98073.03;;;9.73;85.66
46007;BME280;31738;50.188;8.524;2023-04-25T02:48:49;98079.19;;;9.74;85.34
46007;BME280;31738;50.188;8.524;2023-04-25T02:51:18;98077.31;;;9.74;85.62
46007;BME280;31738;50.188;8.524;2023-04-25T02:53:52;98075.97;;;9.72;85.71
46007;BME280;31738;50.188;8.524;2023-04-25T02:56:39;98073.09;;;9.68;85.59
46007;BME280;31738;50.188;8.524;2023-04-25T02:59:16;98069.59;;;9.68;85.31
46007;BME280;31738;50.188;8.524;2023-04-25T03:01:48;98068.50;;;9.69;85.52
46007;BME280;31738;50.188;8.524;2023-04-25T03:04:13;98067.72;;;9.68;85.74
46007;BME280;31738;50.188;8.524;2023-04-25T03:06:39;98067.50;;;9.65;85.86
46007;BME280;31738;50.188;8.524;2023-04-25T03:09:04;98074.72;;;9.64;85.78
46007;BME280;31738;50.188;8.524;2023-04-25T03:11:31;98069.63;;;9.63;85.74
46007;BME280;31738;50.188;8.524;2023-04-25T03:14:13;98076.38;;;9.60;85.57
46007;BME280;31738;50.188;8.524;2023-04-25T03:16:41;98072.88;;;9.60;85.93
46007;BME280;31738;50.188;8.524;2023-04-25T03:19:06;98070.72;;;9.62;85.71
46007;BME280;31738;50.188;8.524;2023-04-25T03:21:36;98076.38;;;9.60;85.34
46007;BME280;31738;50.188;8.524;2023-04-25T03:24:03;98074.78;;;9.59;85.87
46007;BME280;31738;50.188;8.524;2023-04-25T03:26:36;98070.00;;;9.56;85.54
46007;BME280;31738;50.188;8.524;2023-04-25T03:29:02;98068.38;;;9.55;85.70
46007;BME280;31738;50.188;8.524;2023-04-25T03:31:27;98072.97;;;9.55;85.74
46007;BME280;31738;50.188;8.524;2023-04-25T03:33:53;98079.91;;;9.56;85.36
46007;BME280;31738;50.188;8.524;2023-04-25T03:36:21;98069.75;;;9.53;85.85
46007;BME280;31738;50.188;8.524;2023-04-25T03:38:47;98081.03;;;9.50;85.82
46007;BME280;31738;50.188;8.524;2023-04-25T03:41:26;98073.03;;;9.45;85.54
46007;BME280;31738;50.188;8.524;2023-04-25T03:44:13;98084.31;;;9.42;85.24
46007;BME280;31738;50.188;8.524;2023-04-25T03:46:39;98091.03;;;9.39;84.65
46007;BME280;31738;50.188;8.524;2023-04-25T03:49:05;98084.63;;;9.35;84.43
46007;BME280;31738;50.188;8.524;2023-04-25T03:51:53;98094.59;;;9.30;84.42
46007;BME280;31738;50.188;8.524;2023-04-25T03:54:19;98098.06;;;9.30;84.73
46007;BME280;31738;50.188;8.524;2023-04-25T03:56:59;98091.38;;;9.28;84.14
46007;BME280;31738;50.188;8.524;2023-04-25T03:59:27;98098.63;;;9.27;84.44
46007;BME280;31738;50.188;8.524;2023-04-25T04:01:53;98103.22;;;9.22;83.22
46007;BME280;31738;50.188;8.524;2023-04-25T04:04:20;98108.06;;;9.20;83.23
46007;BME280;31738;50.188;8.524;2023-04-25T04:06:46;98107.56;;;9.13;82.61
46007;BME280;31738;50.188;8.524;2023-04-25T04:09:38;98110.81;;;9.05;82.70
46007;BME280;31738;50.188;8.524;2023-04-25T04:12:11;98113.56;;;9.00;82.43
46007;BME280;31738;50.188;8.524;2023-04-25T04:14:39;98129.88;;;8.98;82.22
46007;BME280;31738;50.188;8.524;2023-04-25T04:17:05;98130.94;;;8.97;82.63
46007;BME280;31738;50.188;8.524;2023-04-25T04:19:31;98136.84;;;8.94;82.08
46007;BME280;31738;50.188;8.524;2023-04-25T04:22:04;98140.34;;;8.90;82.23
46007;BME280;31738;50.188;8.524;2023-04-25T04:24:31;98152.13;;;8.89;82.20
46007;BME280;31738;50.188;8.524;2023-04-25T04:27:01;98157.47;;;8.89;82.43
46007;BME280;31738;50.188;8.524;2023-04-25T04:29:39;98157.50;;;8.84;82.33
46007;BME280;31738;50.188;8.524;2023-04-25T04:32:13;98154.81;;;8.84;82.20
46007;BME280;31738;50.188;8.524;2023-04-25T04:34:39;98154.53;;;8.85;82.83
46007;BME280;31738;50.188;8.524;2023-04-25T04:37:05;98152.16;;;8.84;83.02
46007;BME280;31738;50.188;8.524;2023-04-25T04:39:35;98159.09;;;8.85;82.50
46007;BME280;31738;50.188;8.524;2023-04-25T04:42:11;98158.31;;;8.84;82.52
46007;BME280;31738;50.188;8.524;2023-04-25T04:44:44;98160.72;;;8.86;82.90
46007;BME280;31738;50.188;8.524;2023-04-25T04:47:21;98162.28;;;8.87;82.80
46007;BME280;31738;50.188;8.524;2023-04-25T04:49:59;98165.50;;;8.89;82.73
46007;BME280;31738;50.188;8.524;2023-04-25T04:52:51;98173.53;;;8.89;81.92
46007;BME280;31738;50.188;8.524;2023-04-25T04:55:40;98174.56;;;8.93;82.37
46007;BME280;31738;50.188;8.524;2023-04-25T04:58:32;98174.28;;;8.94;82.22
46007;BME280;31738;50.188;8.524;2023-04-25T05:01:08;98185.25;;;8.93;81.89
46007;BME280;31738;50.188;8.524;2023-04-25T05:03:52;98186.34;;;8.92;82.22
46007;BME280;31738;50.188;8.524;2023-04-25T05:06:44;98200.00;;;8.90;82.56
46007;BME280;31738;50.188;8.524;2023-04-25T05:09:33;98199.19;;;8.90;81.73
46007;BME280;31738;50.188;8.524;2023-04-25T05:12:06;98193.28;;;8.93;81.89
46007;BME280;31738;50.188;8.524;2023-04-25T05:14:58;98205.63;;;8.89;81.92
46007;BME280;31738;50.188;8.524;2023-04-25T05:17:37;98204.25;;;8.91;81.37
46007;BME280;31738;50.188;8.524;2023-04-25T05:20:23;98203.72;;;8.89;81.41
46007;BME280;31738;50.188;8.524;2023-04-25T05:23:02;98210.97;;;8.89;80.91
46007;BME280;31738;50.188;8.524;2023-04-25T05:25:40;98216.81;;;8.91;81.23
46007;BME280;31738;50.188;8.524;2023-04-25T05:28:31;98220.31;;;8.91;80.51
46007;BME280;31738;50.188;8.524;2023-04-25T05:35:52;98229.44;;;8.80;78.26
46007;BME280;31738;50.188;8.524;2023-04-25T05:38:18;98246.00;;;8.87;77.85
46007;BME280;31738;50.188;8.524;2023-04-25T05:41:02;98248.91;;;8.91;77.46
46007;BME280;31738;50.188;8.524;2023-04-25T05:43:38;98255.31;;;8.95;77.13
46007;BME280;31738;50.188;8.524;2023-04-25T05:46:20;98258.53;;;8.97;76.85
46007;BME280;31738;50.188;8.524;2023-04-25T05:49:04;98262.25;;;8.96;76.50
46007;BME280;31738;50.188;8.524;2023-04-25T05:51:37;98264.94;;;9.01;76.59
46007;BME280;31738;50.188;8.524;2023-04-25T05:54:18;98270.81;;;9.03;76.73
46007;BME280;31738;50.188;8.524;2023-04-25T05:56:44;98270.50;;;9.09;76.39
46007;BME280;31738;50.188;8.524;2023-04-25T05:59:10;98274.78;;;9.10;76.01
46007;BME280;31738;50.188;8.524;2023-04-25T06:01:36;98279.59;;;9.13;75.89
46007;BME280;31738;50.188;8.524;2023-04-25T06:04:01;98279.81;;;9.22;75.83
46007;BME280;31738;50.188;8.524;2023-04-25T06:06:27;98274.44;;;9.27;75.19
46007;BME280;31738;50.188;8.524;2023-04-25T06:08:53;98276.53;;;9.35;75.36
46007;BME280;31738;50.188;8.524;2023-04-25T06:11:19;98276.47;;;9.45;76.02
46007;BME280;31738;50.188;8.524;2023-04-25T06:13:45;98290.84;;;9.54;75.01
46007;BME280;31738;50.188;8.524;2023-04-25T06:16:11;98291.38;;;9.56;75.19
46007;BME280;31738;50.188;8.524;2023-04-25T06:18:37;98292.97;;;9.57;74.84
46007;BME280;31738;50.188;8.524;2023-04-25T06:21:03;98293.50;;;9.64;74.58
46007;BME280;31738;50.188;8.524;2023-04-25T06:23:28;98307.91;;;9.68;74.88
46007;BME280;31738;50.188;8.524;2023-04-25T06:26:01;98300.91;;;9.72;74.04
46007;BME280;31738;50.188;8.524;2023-04-25T06:28:28;98311.13;;;9.70;72.95
46007;BME280;31738;50.188;8.524;2023-04-25T06:30:54;98321.84;;;9.70;72.76
46007;BME280;31738;50.188;8.524;2023-04-25T06:33:20;98319.91;;;9.75;73.60
46007;BME280;31738;50.188;8.524;2023-04-25T06:35:46;98328.72;;;9.81;73.40
46007;BME280;31738;50.188;8.524;2023-04-25T06:38:15;98324.47;;;9.75;73.74
46007;BME280;31738;50.188;8.524;2023-04-25T06:40:45;98325.56;;;9.69;74.02
46007;BME280;31738;50.188;8.524;2023-04-25T06:43:10;98330.91;;;9.69;74.36
46007;BME280;31738;50.188;8.524;2023-04-25T06:45:49;98330.38;;;9.72;74.94
46007;BME280;31738;50.188;8.524;2023-04-25T06:48:16;98315.91;;;9.73;74.95
46007;BME280;31738;50.188;8.524;2023-04-25T06:50:41;98315.38;;;9.76;75.14
46007;BME280;31738;50.188;8.524;2023-04-25T06:53:07;98322.56;;;9.80;75.16
46007;BME280;31738;50.188;8.524;2023-04-25T06:55:35;98327.09;;;9.85;75.04
46007;BME280;31738;50.188;8.524;2023-04-25T06:58:11;98316.91;;;9.87;74.78
46007;BME280;31738;50.188;8.524;2023-04-25T07:00:55;98319.84;;;9.85;75.47
46007;BME280;31738;50.188;8.524;2023-04-25T07:03:23;98320.59;;;9.96;75.18
46007;BME280;31738;50.188;8.524;2023-04-25T07:05:56;98328.81;;;10.04;74.97
46007;BME280;31738;50.188;8.524;2023-04-25T07:09:12;98322.59;;;10.14;74.93
46007;BME280;31738;50.188;8.524;2023-04-25T07:12:31;98338.75;;;10.04;74.44
46007;BME280;31738;50.188;8.524;2023-04-25T07:14:56;98338.22;;;10.07;74.44
46007;BME280;31738;50.188;8.524;2023-04-25T07:17:22;98341.09;;;10.15;73.54
46007;BME280;31738;50.188;8.524;2023-04-25T07:19:48;98345.56;;;10.25;72.56
46007;BME280;31738;50.188;8.524;2023-04-25T07:26:09;98353.59;;;10.59;72.53
46007;BME280;31738;50.188;8.524;2023-04-25T07:28:37;98357.94;;;10.78;69.89
46007;BME280;31738;50.188;8.524;2023-04-25T07:31:05;98360.56;;;10.88;68.50
46007;BME280;31738;50.188;8.524;2023-04-25T07:33:31;98368.75;;;10.97;68.60
46007;BME280;31738;50.188;8.524;2023-04-25T07:35:57;98388.75;;;11.09;66.51
46007;BME280;31738;50.188;8.524;2023-04-25T07:38:22;98388.94;;;11.18;66.88
46007;BME280;31738;50.188;8.524;2023-04-25T07:40:48;98403.56;;;11.30;67.00
46007;BME280;31738;50.188;8.524;2023-04-25T07:43:15;98404.53;;;11.39;66.50
46007;BME280;31738;50.188;8.524;2023-04-25T07:45:49;98429.09;;;11.51;64.69
46007;BME280;31738;50.188;8.524;2023-04-25T07:48:17;98437.44;;;11.50;65.00
46007;BME280;31738;50.188;8.524;2023-04-25T07:50:46;98435.25;;;11.52;64.97
46007;BME280;31738;50.188;8.524;2023-04-25T07:53:13;98447.31;;;11.54;63.84
46007;BME280;31738;50.188;8.524;2023-04-25T07:55:45;98464.22;;;11.31;63.79
46007;BME280;31738;50.188;8.524;2023-04-25T07:58:16;98462.91;;;11.29;64.36
46007;BME280;31738;50.188;8.524;2023-04-25T08:00:47;98474.38;;;11.34;62.82
46007;BME280;31738;50.188;8.524;2023-04-25T08:03:34;98481.38;;;11.35;61.87
46007;BME280;31738;50.188;8.524;2023-04-25T08:06:02;98477.19;;;11.24;61.32
46007;BME280;31738;50.188;8.524;2023-04-25T08:08:30;98502.84;;;11.35;60.36
46007;BME280;31738;50.188;8.524;2023-04-25T08:10:56;98496.06;;;11.43;60.42
46007;BME280;31738;50.188;8.524;2023-04-25T08:13:21;98506.63;;;11.63;61.05
46007;BME280;31738;50.188;8.524;2023-04-25T08:15:47;98514.19;;;11.56;60.35
46007;BME280;31738;50.188;8.524;2023-04-25T08:18:16;98521.09;;;11.62;60.40
46007;BME280;31738;50.188;8.524;2023-04-25T08:20:42;98526.16;;;11.68;59.83
46007;BME280;31738;50.188;8.524;2023-04-25T08:23:10;98525.25;;;11.78;58.84
46007;BME280;31738;50.188;8.524;2023-04-25T08:25:49;98532.22;;;12.02;59.57
46007;BME280;31738;50.188;8.524;2023-04-25T08:28:17;98530.75;;;12.15;58.81
46007;BME280;31738;50.188;8.524;2023-04-25T08:30:44;98536.47;;;12.08;58.86
46007;BME280;31738;50.188;8.524;2023-04-25T08:33:12;98548.25;;;11.89;58.90
46007;BME280;31738;50.188;8.524;2023-04-25T08:35:56;98547.69;;;11.92;60.11
46007;BME280;31738;50.188;8.524;2023-04-25T08:38:21;98539.09;;;12.14;60.08
46007;BME280;31738;50.188;8.524;2023-04-25T08:40:50;98545.69;;;12.45;60.24
46007;BME280;31738;50.188;8.524;2023-04-25T08:43:18;98542.19;;;12.63;56.54
46007;BME280;31738;50.188;8.524;2023-04-25T08:45:45;98546.84;;;12.76;56.90
46007;BME280;31738;50.188;8.524;2023-04-25T08:48:21;98556.97;;;13.02;55.77
46007;BME280;31738;50.188;8.524;2023-04-25T08:50:52;98558.78;;;13.07;54.24
46007;BME280;31738;50.188;8.524;2023-04-25T08:53:22;98571.59;;;13.15;55.53
46007;BME280;31738;50.188;8.524;2023-04-25T08:55:50;98583.22;;;13.29;54.41
46007;BME280;31738;50.188;8.524;2023-04-25T08:58:18;98592.19;;;13.24;54.25
46007;BME280;31738;50.188;8.524;2023-04-25T09:00:43;98602.78;;;13.16;53.89
46007;BME280;31738;50.188;8.524;2023-04-25T09:03:10;98607.31;;;13.02;53.99
46007;BME280;31738;50.188;8.524;2023-04-25T09:05:36;98602.06;;;12.92;54.53
46007;BME280;31738;50.188;8.524;2023-04-25T09:08:02;98618.50;;;12.72;55.03
46007;BME280;31738;50.188;8.524;2023-04-25T09:10:28;98630.34;;;12.71;55.07
46007;BME280;31738;50.188;8.524;2023-04-25T09:13:10;98626.94;;;12.84;56.37
46007;BME280;31738;50.188;8.524;2023-04-25T09:16:00;98626.28;;;12.92;56.97
46007;BME280;31738;50.188;8.524;2023-04-25T09:18:47;98627.69;;;13.08;55.88
46007;BME280;31738;50.188;8.524;2023-04-25T09:21:13;98623.50;;;13.34;54.21
46007;BME280;31738;50.188;8.524;2023-04-25T09:23:47;98636.03;;;13.43;53.30
46007;BME280;31738;50.188;8.524;2023-04-25T09:26:22;98632.47;;;13.48;54.38
46007;BME280;31738;50.188;8.524;2023-04-25T09:29:04;98639.09;;;13.69;54.01
46007;BME280;31738;50.188;8.524;2023-04-25T09:31:33;98650.13;;;13.54;51.17
46007;BME280;31738;50.188;8.524;2023-04-25T09:34:00;98657.53;;;13.30;52.21
46007;BME280;31738;50.188;8.524;2023-04-25T09:36:27;98654.91;;;13.25;52.70
46007;BME280;31738;50.188;8.524;2023-04-25T09:39:13;98668.38;;;13.25;52.22
46007;BME280;31738;50.188;8.524;2023-04-25T09:41:53;98667.50;;;13.29;53.05
46007;BME280;31738;50.188;8.524;2023-04-25T09:44:23;98656.63;;;13.53;54.47
46007;BME280;31738;50.188;8.524;2023-04-25T09:46:49;98661.06;;;13.95;54.13
46007;BME280;31738;50.188;8.524;2023-04-25T09:49:20;98661.91;;;14.22;52.52
46007;BME280;31738;50.188;8.524;2023-04-25T09:52:06;98671.06;;;14.21;50.74
46007;BME280;31738;50.188;8.524;2023-04-25T09:54:39;98679.22;;;14.03;51.13
46007;BME280;31738;50.188;8.524;2023-04-25T09:57:17;98692.63;;;13.75;50.46
46007;BME280;31738;50.188;8.524;2023-04-25T09:59:47;98697.47;;;13.60;50.34
46007;BME280;31738;50.188;8.524;2023-04-25T10:02:15;98704.41;;;13.47;51.04
46007;BME280;31738;50.188;8.524;2023-04-25T10:04:44;98703.84;;;13.32;51.07
46007;BME280;31738;50.188;8.524;2023-04-25T10:07:24;98708.72;;;13.30;51.22
46007;BME280;31738;50.188;8.524;2023-04-25T10:09:55;98714.22;;;13.20;50.37
46007;BME280;31738;50.188;8.524;2023-04-25T10:12:24;98713.00;;;12.89;50.47
46007;BME280;31738;50.188;8.524;2023-04-25T10:14:50;98719.31;;;12.79;51.51
46007;BME280;31738;50.188;8.524;2023-04-25T10:17:17;98725.50;;;12.80;51.68
46007;BME280;31738;50.188;8.524;2023-04-25T10:19:46;98725.22;;;12.81;51.45
46007;BME280;31738;50.188;8.524;2023-04-25T10:22:28;98743.59;;;12.74;50.71
46007;BME280;31738;50.188;8.524;2023-04-25T10:24:55;98733.28;;;12.58;51.68
46007;BME280;31738;50.188;8.524;2023-04-25T10:27:21;98735.09;;;12.39;52.29
46007;BME280;31738;50.188;8.524;2023-04-25T10:30:00;98730.38;;;12.31;53.74
46007;BME280;31738;50.188;8.524;2023-04-25T10:32:26;98739.50;;;12.30;53.86
46007;BME280;31738;50.188;8.524;2023-04-25T10:34:51;98725.59;;;12.23;54.37
46007;BME280;31738;50.188;8.524;2023-04-25T10:37:18;98733.69;;;12.18;54.49
46007;BME280;31738;50.188;8.524;2023-04-25T10:39:44;98720.22;;;12.23;55.05
46007;BME280;31738;50.188;8.524;2023-04-25T10:42:11;98722.34;;;12.26;54.95
46007;BME280;31738;50.188;8.524;2023-04-25T10:44:38;98719.66;;;12.26;54.65
46007;BME280;31738;50.188;8.524;2023-04-25T10:47:07;98716.44;;;12.24;55.27
46007;BME280;31738;50.188;8.524;2023-04-25T10:49:37;98712.09;;;12.28;55.78
46007;BME280;31738;50.188;8.524;2023-04-25T10:54:42;98717.13;;;12.34;54.83
46007;BME280;31738;50.188;8.524;2023-04-25T10:57:49;98725.03;;;12.26;55.16
46007;BME280;31738;50.188;8.524;2023-04-25T11:00:18;98732.69;;;12.14;54.58
46007;BME280;31738;50.188;8.524;2023-04-25T11:02:46;98725.91;;;12.16;53.97
46007;BME280;31738;50.188;8.524;2023-04-25T11:05:33;98728.09;;;12.14;54.84
46007;BME280;31738;50.188;8.524;2023-04-25T11:07:59;98742.94;;;12.06;53.82
46007;BME280;31738;50.188;8.524;2023-04-25T11:10:29;98739.22;;;12.02;53.64
46007;BME280;31738;50.188;8.524;2023-04-25T11:12:56;98736.53;;;12.02;53.44
46007;BME280;31738;50.188;8.524;2023-04-25T11:15:21;98737.34;;;12.03;52.70
46007;BME280;31738;50.188;8.524;2023-04-25T11:17:47;98730.41;;;12.26;52.44
46007;BME280;31738;50.188;8.524;2023-04-25T11:20:13;98730.56;;;12.63;51.92
46007;BME280;31738;50.188;8.524;2023-04-25T11:22:41;98714.97;;;13.07;51.88
46007;BME280;31738;50.188;8.524;2023-04-25T11:25:08;98722.03;;;13.40;50.01
46007;BME280;31738;50.188;8.524;2023-04-25T11:27:34;98722.06;;;13.72;50.43
46007;BME280;31738;50.188;8.524;2023-04-25T11:30:13;98725.22;;;14.11;49.69
46007;BME280;31738;50.188;8.524;2023-04-25T11:32:40;98730.38;;;14.08;49.56
46007;BME280;31738;50.188;8.524;2023-04-25T11:35:33;98743.16;;;14.02;50.52
46007;BME280;31738;50.188;8.524;2023-04-25T11:41:56;98768.59;;;13.64;50.04
46007;BME280;31738;50.188;8.524;2023-04-25T11:44:30;98773.31;;;13.53;49.61
46007;BME280;31738;50.188;8.524;2023-04-25T11:47:30;98798.41;;;13.49;46.75
46007;BME280;31738;50.188;8.524;2023-04-25T11:50:22;98779.41;;;13.22;49.60
46007;BME280;31738;50.188;8.524;2023-04-25T11:53:29;98800.38;;;13.25;49.92
46007;BME280;31738;50.188;8.524;2023-04-25T11:56:35;98796.06;;;13.24;49.84
46007;BME280;31738;50.188;8.524;2023-04-25T11:59:16;98792.84;;;13.22;50.16
46007;BME280;31738;50.188;8.524;2023-04-25T12:01:52;98801.38;;;13.10;49.10
46007;BME280;31738;50.188;8.524;2023-04-25T12:04:39;98819.56;;;12.95;48.82
46007;BME280;31738;50.188;8.524;2023-04-25T12:07:53;98815.47;;;12.74;49.82
46007;BME280;31738;50.188;8.524;2023-04-25T12:10:37;98821.25;;;12.62;51.22
46007;BME280;31738;50.188;8.524;2023-04-25T12:13:22;98827.00;;;12.51;50.60
46007;BME280;31738;50.188;8.524;2023-04-25T12:16:13;98825.00;;;12.33;51.41
46007;BME280;31738;50.188;8.524;2023-04-25T12:18:57;98813.22;;;12.29;51.27
46007;BME280;31738;50.188;8.524;2023-04-25T12:21:50;98821.69;;;12.12;51.43
46007;BME280;31738;50.188;8.524;2023-04-25T12:24:26;98832.75;;;12.05;50.81
46007;BME280;31738;50.188;8.524;2023-04-25T12:27:04;98806.34;;;12.13;51.72
46007;BME280;31738;50.188;8.524;2023-04-25T12:31:06;98796.38;;;12.47;51.93
46007;BME280;31738;50.188;8.524;2023-04-25T12:34:07;98796.19;;;12.90;49.42
46007;BME280;31738;50.188;8.524;2023-04-25T12:36:58;98793.78;;;13.12;49.95
46007;BME280;31738;50.188;8.524;2023-04-25T12:39:27;98794.78;;;13.40;49.91
46007;BME280;31738;50.188;8.524;2023-04-25T12:42:25;98804.63;;;13.87;48.35
46007;BME280;31738;50.188;8.524;2023-04-25T12:45:14;98795.06;;;13.94;49.19
46007;BME280;31738;50.188;8.524;2023-04-25T12:47:43;98808.31;;;14.09;47.98
46007;BME280;31738;50.188;8.524;2023-04-25T12:50:53;98813.72;;;14.09;47.30
46007;BME280;31738;50.188;8.524;2023-04-25T12:53:30;98820.13;;;14.13;46.83
46007;BME280;31738;50.188;8.524;2023-04-25T12:56:03;98843.44;;;14.04;46.59
46007;BME280;31738;50.188;8.524;2023-04-25T12:58:35;98848.59;;;13.87;47.39
46007;BME280;31738;50.188;8.524;2023-04-25T13:01:01;98848.88;;;13.86;47.53
46007;BME280;31738;50.188;8.524;2023-04-25T13:03:26;98853.16;;;13.87;46.79
46007;BME280;31738;50.188;8.524;2023-04-25T13:05:52;98860.38;;;13.91;47.05
46007;BME280;31738;50.188;8.524;2023-04-25T13:08:20;98840.31;;;14.16;46.99
46007;BME280;31738;50.188;8.524;2023-04-25T13:10:47;98841.91;;;14.35;47.25
46007;BME280;31738;50.188;8.524;2023-04-25T13:13:19;98850.00;;;14.35;46.48
46007;BME280;31738;50.188;8.524;2023-04-25T13:15:46;98855.44;;;14.49;45.71
46007;BME280;31738;50.188;8.524;2023-04-25T13:18:15;98846.56;;;14.48;46.95
46007;BME280;31738;50.188;8.524;2023-04-25T13:20:49;98845.88;;;14.56;48.00
46007;BME280;31738;50.188;8.524;2023-04-25T13:23:21;98847.41;;;14.62;46.24
46007;BME280;31738;50.188;8.524;2023-04-25T13:25:48;98853.66;;;14.44;46.33
46007;BME280;31738;50.188;8.524;2023-04-25T13:28:32;98868.63;;;14.37;45.19
46007;BME280;31738;50.188;8.524;2023-04-25T13:31:00;98876.78;;;14.32;45.72
46007;BME280;31738;50.188;8.524;2023-04-25T13:33:26;98878.03;;;14.39;45.80
46007;BME280;31738;50.188;8.524;2023-04-25T13:35:52;98888.38;;;14.14;44.73
46007;BME280;31738;50.188;8.524;2023-04-25T13:38:27;98890.69;;;13.83;44.43
46007;BME280;31738;50.188;8.524;2023-04-25T13:40:57;98880.94;;;13.87;45.84
46007;BME280;31738;50.188;8.524;2023-04-25T13:43:49;98883.56;;;13.92;45.34
46007;BME280;31738;50.188;8.524;2023-04-25T13:46:14;98884.88;;;14.13;45.85
46007;BME280;31738;50.188;8.524;2023-04-25T13:48:53;98881.16;;;14.28;45.26